Time;durP1;ratioP1;P1;durP2;ratioP2;P2;SDS_P1;SDS_P2;PMS_P1;PMS_P2;Temp;Humidity;BMP_temperature;BMP_pressure;BME280_temperature;BME280_humidity;BME280_pressure;Samples;Min_cycle;Max_cycle;Signal;HPM_P1;HPM_P2
2021/04/30 00:01:30;;;;;;;21.52;8.10;;;;;;;6.21;80.54;101458.16;5037885;28;20064;-73
2021/04/30 00:03:57;;;;;;;21.65;7.70;;;;;;;6.19;80.16;101457.28;5036559;28;20439;-73
2021/04/30 00:06:24;;;;;;;14.85;7.13;;;;;;;6.14;80.19;101454.63;5048679;28;20087;-73
2021/04/30 00:08:51;;;;;;;22.90;7.38;;;;;;;6.10;79.84;101444.94;5057148;28;20067;-70
2021/04/30 00:11:19;;;;;;;24.42;7.25;;;;;;;6.08;80.50;101454.66;5050415;28;20110;-71
2021/04/30 00:13:46;;;;;;;18.42;7.55;;;;;;;6.07;80.33;101445.81;5049415;28;20556;-70
2021/04/30 00:16:13;;;;;;;23.67;7.68;;;;;;;6.10;80.46;101447.59;5056069;28;20054;-70
2021/04/30 00:18:40;;;;;;;19.60;7.32;;;;;;;6.04;80.55;101451.13;5052219;28;20061;-70
2021/04/30 00:21:07;;;;;;;24.52;8.05;;;;;;;6.05;80.94;101450.25;5043618;28;20446;-69
2021/04/30 00:23:34;;;;;;;18.58;7.22;;;;;;;6.03;81.13;101444.09;5052229;28;20455;-70
2021/04/30 00:26:04;;;;;;;18.92;6.63;;;;;;;6.05;81.23;101447.59;5057523;28;20057;-70
2021/04/30 00:28:32;;;;;;;17.30;6.28;;;;;;;6.04;81.03;101443.19;5052053;28;20060;-70
2021/04/30 00:30:59;;;;;;;21.33;8.18;;;;;;;6.06;80.95;101443.19;5054354;28;20063;-70
2021/04/30 00:33:28;;;;;;;13.48;6.00;;;;;;;6.08;81.40;101446.69;5045348;28;20136;-69
2021/04/30 00:35:56;;;;;;;22.17;7.15;;;;;;;6.06;81.36;101454.69;5050823;28;20140;-70
2021/04/30 00:38:23;;;;;;;15.55;6.05;;;;;;;6.14;81.18;101450.22;5050605;28;20048;-72
2021/04/30 00:40:52;;;;;;;16.65;6.03;;;;;;;6.19;80.98;101441.38;5053575;28;20045;-73
2021/04/30 00:43:20;;;;;;;20.95;5.70;;;;;;;6.18;81.60;101443.16;5056895;28;20056;-73
2021/04/30 00:45:52;;;;;;;15.70;5.78;;;;;;;6.18;81.38;101445.81;5054851;28;20056;-73
2021/04/30 00:48:19;;;;;;;15.38;6.07;;;;;;;6.21;81.35;101445.75;5052905;28;20060;-72
2021/04/30 00:50:46;;;;;;;14.10;5.40;;;;;;;6.18;81.70;101443.16;5055358;28;20063;-73
2021/04/30 00:53:13;;;;;;;15.57;5.97;;;;;;;6.20;81.55;101441.38;5053747;28;20059;-72
2021/04/30 00:55:40;;;;;;;20.20;6.07;;;;;;;6.22;81.66;101444.03;5049407;28;20049;-74
2021/04/30 00:58:08;;;;;;;14.85;5.28;;;;;;;6.22;81.73;101450.19;5050294;28;20056;-73
2021/04/30 01:00:38;;;;;;;23.95;6.65;;;;;;;6.22;81.72;101447.53;5051636;28;20044;-73
2021/04/30 01:03:07;;;;;;;19.58;5.72;;;;;;;6.25;81.81;101454.59;5051822;28;20079;-73
2021/04/30 01:05:35;;;;;;;16.65;6.38;;;;;;;6.23;81.61;101451.06;5054232;28;20053;-73
2021/04/30 01:08:02;;;;;;;14.45;5.22;;;;;;;6.25;81.71;101455.50;5052051;28;20088;-73
2021/04/30 01:10:30;;;;;;;13.32;5.80;;;;;;;6.27;82.03;101461.66;5054686;28;20076;-70
2021/04/30 01:12:57;;;;;;;16.52;5.47;;;;;;;6.28;81.61;101463.44;5049991;28;20137;-70
2021/04/30 01:15:24;;;;;;;20.35;6.90;;;;;;;6.29;81.76;101454.56;5050211;28;20053;-70
2021/04/30 01:17:52;;;;;;;22.17;6.18;;;;;;;6.31;81.78;101460.75;5049299;28;20123;-70
2021/04/30 01:20:20;;;;;;;14.43;5.70;;;;;;;6.29;81.67;101453.69;5053061;28;20052;-70
2021/04/30 01:22:49;;;;;;;13.75;5.63;;;;;;;6.32;81.58;101457.22;5048509;28;20108;-70
2021/04/30 01:25:18;;;;;;;16.75;5.88;;;;;;;6.32;82.06;101457.22;5053545;28;20047;-69
2021/04/30 01:27:46;;;;;;;21.45;4.97;;;;;;;6.34;82.21;101460.72;5053152;28;20068;-70
2021/04/30 01:30:16;;;;;;;15.48;5.45;;;;;;;6.36;81.83;101463.38;5052517;28;20045;-70
2021/04/30 01:32:43;;;;;;;13.52;5.25;;;;;;;6.36;81.67;101466.03;5042176;28;20095;-69
2021/04/30 01:35:11;;;;;;;11.00;4.97;;;;;;;6.39;82.05;101467.81;5049357;28;20061;-70
2021/04/30 01:37:38;;;;;;;15.23;5.30;;;;;;;6.37;81.98;101473.09;5046968;28;20053;-70
2021/04/30 01:40:13;;;;;;;13.38;5.47;;;;;;;6.38;81.73;101466.03;5054683;28;20256;-70
2021/04/30 01:42:59;;;;;;;18.75;5.35;;;;;;;6.42;82.23;101467.75;5047884;28;20053;-70
2021/04/30 01:45:27;;;;;;;17.15;5.55;;;;;;;6.43;81.92;101469.53;5052456;28;20076;-69
2021/04/30 01:47:54;;;;;;;17.13;5.00;;;;;;;6.43;81.91;101467.75;5053528;28;20315;-69
2021/04/30 01:50:22;;;;;;;16.92;5.07;;;;;;;6.44;82.30;101474.84;5045800;28;20075;-71
2021/04/30 01:52:49;;;;;;;20.52;5.78;;;;;;;6.44;81.81;101468.66;5057026;28;20094;-70
2021/04/30 01:55:17;;;;;;;12.30;5.13;;;;;;;6.46;81.95;101469.53;5048143;28;20474;-70
2021/04/30 01:57:45;;;;;;;18.60;5.75;;;;;;;6.44;82.35;101474.84;5056402;28;20087;-70
2021/04/30 02:00:20;;;;;;;17.40;5.18;;;;;;;6.41;82.60;101472.19;5058070;28;20427;-70
2021/04/30 02:02:49;;;;;;;14.65;5.28;;;;;;;6.38;82.39;101474.84;5057884;28;20095;-70
2021/04/30 02:05:16;;;;;;;18.90;5.38;;;;;;;6.34;83.12;101479.28;5050478;28;20127;-70
2021/04/30 02:07:43;;;;;;;14.65;5.25;;;;;;;6.35;83.10;101474.84;5058584;28;20048;-69
2021/04/30 02:10:16;;;;;;;16.40;5.40;;;;;;;6.37;83.07;101475.75;5058128;28;20045;-70
2021/04/30 02:12:45;;;;;;;13.40;5.53;;;;;;;6.38;82.86;101480.16;5054623;28;20067;-69
2021/04/30 02:15:14;;;;;;;14.07;5.93;;;;;;;6.38;83.18;101474.84;5057416;28;20286;-70
2021/04/30 02:17:42;;;;;;;18.75;5.88;;;;;;;6.35;83.16;101478.41;5056070;28;20045;-70
2021/04/30 02:20:11;;;;;;;15.73;5.20;;;;;;;6.40;83.33;101469.53;5047266;28;20064;-71
2021/04/30 02:22:40;;;;;;;17.45;6.03;;;;;;;6.42;83.06;101468.66;5055494;28;20107;-69
2021/04/30 02:25:09;;;;;;;20.40;5.95;;;;;;;6.42;83.16;101478.38;5045413;28;20049;-70
2021/04/30 02:27:37;;;;;;;20.73;5.30;;;;;;;6.42;83.08;101473.06;5053337;28;20367;-70
2021/04/30 02:30:07;;;;;;;16.83;5.85;;;;;;;6.45;83.58;101470.41;5051331;28;20857;-69
2021/04/30 02:32:34;;;;;;;18.42;5.40;;;;;;;6.44;83.32;101477.50;5054470;28;20100;-69
2021/04/30 02:35:03;;;;;;;16.52;5.65;;;;;;;6.44;83.41;101471.31;5053330;28;20044;-71
2021/04/30 02:37:30;;;;;;;19.48;5.65;;;;;;;6.47;83.83;101473.91;5050793;28;20448;-73
2021/04/30 02:39:56;;;;;;;13.90;6.25;;;;;;;6.49;83.35;101473.03;5054365;28;20057;-72
2021/04/30 02:42:23;;;;;;;17.23;5.93;;;;;;;6.48;83.59;101475.69;5050900;28;20079;-73
2021/04/30 02:44:50;;;;;;;23.42;6.32;;;;;;;6.48;83.57;101476.56;5054656;28;20052;-75
2021/04/30 02:47:20;;;;;;;16.15;5.55;;;;;;;6.48;83.60;101476.56;5048618;28;20053;-73
2021/04/30 02:49:47;;;;;;;16.60;5.00;;;;;;;6.49;83.65;101481.00;5058003;28;20057;-74
2021/04/30 02:52:16;;;;;;;15.48;5.80;;;;;;;6.50;84.05;101479.22;5070541;28;20057;-73
2021/04/30 02:54:44;;;;;;;17.20;5.43;;;;;;;6.51;83.92;101479.22;5058048;28;20049;-74
2021/04/30 02:57:13;;;;;;;15.48;5.70;;;;;;;6.52;83.94;101490.69;5042483;28;20057;-74
2021/04/30 02:59:41;;;;;;;16.95;5.18;;;;;;;6.53;83.89;101481.84;5048222;28;20364;-73
2021/04/30 03:02:09;;;;;;;14.45;5.10;;;;;;;6.53;83.98;101481.84;5048918;28;20056;-73
2021/04/30 03:04:38;;;;;;;17.98;5.70;;;;;;;6.54;83.53;101483.63;5056169;28;20086;-75
2021/04/30 03:07:05;;;;;;;22.10;6.15;;;;;;;6.52;84.00;101490.69;5054164;28;20053;-74
2021/04/30 03:09:32;;;;;;;15.70;5.97;;;;;;;6.52;84.03;101473.03;5053374;28;20061;-74
2021/04/30 03:11:59;;;;;;;19.15;6.43;;;;;;;6.52;84.42;101473.03;5056255;28;20052;-75
2021/04/30 03:14:27;;;;;;;14.80;6.43;;;;;;;6.55;84.14;101480.06;5056520;28;20048;-70
2021/04/30 03:16:54;;;;;;;21.13;6.82;;;;;;;6.54;84.52;101475.69;5049438;28;20045;-70
2021/04/30 03:19:21;;;;;;;17.38;6.00;;;;;;;6.55;84.22;101472.13;5054923;28;20069;-71
2021/04/30 03:21:49;;;;;;;18.83;6.35;;;;;;;6.57;84.44;101475.63;5055470;28;20063;-71
2021/04/30 03:24:16;;;;;;;17.63;6.18;;;;;;;6.55;84.25;101472.13;5052464;28;20063;-70
2021/04/30 03:26:43;;;;;;;19.50;6.50;;;;;;;6.56;84.41;101468.59;5059758;28;20053;-74
2021/04/30 03:29:09;;;;;;;17.08;6.50;;;;;;;6.56;84.60;101471.25;5060123;28;20045;-73
2021/04/30 03:31:36;;;;;;;16.65;5.85;;;;;;;6.58;84.69;101482.72;5051933;28;20184;-73
2021/04/30 03:34:05;;;;;;;21.30;6.38;;;;;;;6.58;84.36;101471.22;5049586;28;20114;-73
2021/04/30 03:36:31;;;;;;;15.75;5.97;;;;;;;6.57;84.54;101483.59;5043270;28;20411;-74
2021/04/30 03:39:00;;;;;;;18.95;6.47;;;;;;;6.59;84.28;101480.94;5055163;28;20049;-74
2021/04/30 03:41:27;;;;;;;16.08;5.72;;;;;;;6.59;84.17;101478.28;5047589;28;20053;-73
2021/04/30 03:43:54;;;;;;;14.18;5.18;;;;;;;6.58;84.29;101477.41;5056284;28;20442;-74
2021/04/30 03:46:21;;;;;;;20.00;7.43;;;;;;;6.60;84.60;101478.28;5056582;28;20163;-75
2021/04/30 03:48:48;;;;;;;18.23;6.25;;;;;;;6.59;84.70;101472.97;5055007;28;20135;-75
2021/04/30 03:51:15;;;;;;;15.57;6.57;;;;;;;6.62;84.64;101478.28;5055036;28;20055;-73
2021/04/30 03:53:41;;;;;;;20.45;6.97;;;;;;;6.60;84.61;101477.41;5053121;28;20051;-73
2021/04/30 03:56:09;;;;;;;16.73;6.95;;;;;;;6.60;84.62;101469.44;5052485;28;20061;-74
2021/04/30 03:58:36;;;;;;;15.98;6.47;;;;;;;6.60;84.73;101475.63;5051642;28;20049;-73
2021/04/30 04:01:06;;;;;;;17.48;6.47;;;;;;;6.60;84.94;101474.75;5053865;28;20056;-73
2021/04/30 04:03:33;;;;;;;27.35;6.28;;;;;;;6.60;84.98;101474.75;5054856;28;20056;-74
2021/04/30 04:05:59;;;;;;;17.45;6.95;;;;;;;6.60;84.95;101472.97;5064868;28;20454;-74
2021/04/30 04:08:28;;;;;;;17.38;7.07;;;;;;;6.60;84.60;101480.06;5052007;28;20057;-74
2021/04/30 04:10:56;;;;;;;23.98;7.65;;;;;;;6.60;84.82;101472.97;5053343;28;20414;-71
2021/04/30 04:13:26;;;;;;;17.42;6.93;;;;;;;6.61;84.74;101471.22;5050662;28;20057;-71
2021/04/30 04:15:57;;;;;;;20.13;6.55;;;;;;;6.62;85.02;101470.31;5053562;28;20048;-69
2021/04/30 04:18:25;;;;;;;17.52;7.88;;;;;;;6.61;85.16;101469.44;5052638;28;20057;-69
2021/04/30 04:20:53;;;;;;;19.65;7.97;;;;;;;6.61;84.83;101464.13;5053488;28;20060;-69
2021/04/30 04:23:20;;;;;;;20.45;7.97;;;;;;;6.59;84.97;101465.03;5049462;28;20143;-69
2021/04/30 04:25:47;;;;;;;19.73;7.82;;;;;;;6.58;84.97;101477.41;5055311;28;20056;-70
2021/04/30 04:28:14;;;;;;;21.25;7.38;;;;;;;6.62;84.87;101465.88;5069598;28;20458;-70
2021/04/30 04:30:42;;;;;;;22.83;7.88;;;;;;;6.61;85.12;101477.41;5048448;28;20345;-69
2021/04/30 04:33:10;;;;;;;23.48;8.23;;;;;;;6.62;84.99;101479.16;5053273;28;20079;-71
2021/04/30 04:35:37;;;;;;;22.00;7.43;;;;;;;6.63;85.23;101485.34;5052561;28;20060;-72
2021/04/30 04:38:05;;;;;;;20.92;7.72;;;;;;;6.63;85.29;101485.34;5048494;28;20203;-71
2021/04/30 04:40:32;;;;;;;18.30;7.07;;;;;;;6.64;84.92;101480.03;5045465;28;20052;-73
2021/04/30 04:42:59;;;;;;;21.10;7.53;;;;;;;6.63;85.07;101485.34;5049762;28;20048;-70
2021/04/30 04:45:26;;;;;;;21.27;8.52;;;;;;;6.63;85.15;101488.88;5044672;28;20193;-71
2021/04/30 04:47:54;;;;;;;19.05;7.60;;;;;;;6.61;85.23;101481.84;5055038;28;20055;-71
2021/04/30 04:50:21;;;;;;;20.73;8.52;;;;;;;6.65;85.03;101483.56;5068684;28;20128;-71
2021/04/30 04:52:48;;;;;;;24.00;8.90;;;;;;;6.68;85.39;101480.91;5044699;28;20164;-71
2021/04/30 04:55:17;;;;;;;17.83;7.20;;;;;;;6.69;85.21;101487.94;5049993;28;20057;-71
2021/04/30 04:57:45;;;;;;;21.33;8.13;;;;;;;6.69;85.37;101486.19;5053648;28;20075;-71
2021/04/30 05:00:14;;;;;;;28.42;9.10;;;;;;;6.71;85.51;101492.38;5052672;28;20048;-71
2021/04/30 05:02:41;;;;;;;22.50;8.13;;;;;;;6.72;85.46;101487.94;5054656;28;20406;-71
2021/04/30 05:05:10;;;;;;;26.58;9.55;;;;;;;6.74;84.99;101486.16;5044647;28;20057;-71
2021/04/30 05:07:37;;;;;;;19.52;8.18;;;;;;;6.76;84.77;101488.78;5053968;28;20111;-69
2021/04/30 05:10:05;;;;;;;17.58;9.00;;;;;;;6.76;85.57;101492.34;5052948;28;20053;-75
2021/04/30 05:12:32;;;;;;;17.17;8.35;;;;;;;6.79;85.58;101491.44;5054330;28;20485;-74
2021/04/30 05:14:59;;;;;;;21.08;9.60;;;;;;;6.80;85.03;101493.22;5050000;28;20083;-71
2021/04/30 05:17:26;;;;;;;29.02;10.20;;;;;;;6.81;85.17;101497.59;5049824;28;20071;-71
2021/04/30 05:19:53;;;;;;;22.98;10.20;;;;;;;6.81;85.11;101497.59;5051497;28;20087;-70
2021/04/30 05:22:21;;;;;;;20.75;10.52;;;;;;;6.83;85.55;101496.72;5052134;28;20053;-70
2021/04/30 05:24:48;;;;;;;22.95;10.95;;;;;;;6.84;85.46;101500.25;5047863;28;20060;-70
2021/04/30 05:27:16;;;;;;;21.50;10.25;;;;;;;6.84;85.17;101497.59;5049949;28;20053;-70
2021/04/30 05:29:44;;;;;;;23.98;10.85;;;;;;;6.92;85.37;101506.38;5049273;28;20057;-70
2021/04/30 05:32:12;;;;;;;21.40;10.38;;;;;;;6.90;85.65;101509.06;5056077;28;20072;-70
2021/04/30 05:34:40;;;;;;;23.23;11.30;;;;;;;6.91;85.51;101513.47;5049004;28;20149;-74
2021/04/30 05:37:09;;;;;;;23.83;11.45;;;;;;;6.97;85.30;101514.34;5056490;28;20523;-73
2021/04/30 05:39:36;;;;;;;20.17;10.73;;;;;;;6.95;85.63;101522.31;5059159;28;20053;-73
2021/04/30 05:42:05;;;;;;;24.52;10.63;;;;;;;6.99;85.79;101515.19;5057998;28;20063;-74
2021/04/30 05:44:33;;;;;;;23.75;10.73;;;;;;;6.99;85.44;101513.41;5048252;28;20411;-73
2021/04/30 05:47:00;;;;;;;24.15;10.55;;;;;;;7.03;85.45;101527.53;5068783;28;20087;-73
2021/04/30 05:49:27;;;;;;;18.75;11.15;;;;;;;7.00;85.13;101522.25;5056913;28;20056;-74
2021/04/30 05:51:54;;;;;;;25.13;10.93;;;;;;;7.03;85.15;101528.44;5050827;28;20064;-73
2021/04/30 05:54:21;;;;;;;20.88;9.98;;;;;;;7.05;85.39;101528.44;5056612;28;20049;-74
2021/04/30 05:56:49;;;;;;;23.85;11.25;;;;;;;7.02;85.26;101529.31;5059200;28;20052;-75
2021/04/30 05:59:16;;;;;;;21.73;10.88;;;;;;;7.08;84.89;101536.34;5058377;28;20496;-73
2021/04/30 06:01:43;;;;;;;24.88;11.90;;;;;;;7.11;85.31;101533.69;5054279;28;20462;-73
2021/04/30 06:04:10;;;;;;;20.50;10.32;;;;;;;7.16;84.80;101539.84;5052394;28;20057;-74
2021/04/30 06:06:37;;;;;;;23.13;11.55;;;;;;;7.16;84.84;101536.31;5042779;28;20754;-73
2021/04/30 06:09:05;;;;;;;24.85;12.95;;;;;;;7.16;84.40;101526.56;5054678;28;20084;-74
2021/04/30 06:11:31;;;;;;;26.67;12.18;;;;;;;7.21;84.63;101532.72;5058398;28;20140;-74
2021/04/30 06:13:59;;;;;;;25.58;11.98;;;;;;;7.26;84.31;101538.88;5050430;28;20497;-74
2021/04/30 06:16:26;;;;;;;22.83;12.57;;;;;;;7.30;84.58;101531.78;5052313;28;20453;-71
2021/04/30 06:18:53;;;;;;;27.63;12.60;;;;;;;7.35;84.13;101526.44;5053373;28;20059;-71
2021/04/30 06:21:20;;;;;;;26.13;11.75;;;;;;;7.41;84.23;101529.06;5055928;28;20439;-71
2021/04/30 06:23:47;;;;;;;28.27;13.90;;;;;;;7.47;83.63;101537.88;5059127;28;20057;-70
2021/04/30 06:26:14;;;;;;;22.77;12.35;;;;;;;7.50;83.11;101536.06;5052792;28;20065;-70
2021/04/30 06:28:41;;;;;;;25.42;14.18;;;;;;;7.53;83.14;101539.56;5047013;28;20053;-69
2021/04/30 06:31:09;;;;;;;23.85;11.77;;;;;;;7.59;82.37;101535.97;5071528;28;20049;-70
2021/04/30 06:33:36;;;;;;;28.27;13.27;;;;;;;7.59;82.38;101535.97;5053816;28;20061;-69
2021/04/30 06:36:04;;;;;;;24.17;12.95;;;;;;;7.67;82.43;101542.09;5055979;28;20060;-70
2021/04/30 06:38:30;;;;;;;27.05;12.52;;;;;;;7.62;81.99;101538.63;5055543;28;20094;-71
2021/04/30 06:40:58;;;;;;;29.27;13.75;;;;;;;7.58;81.82;101539.53;5055498;28;20095;-70
2021/04/30 06:43:27;;;;;;;25.42;13.88;;;;;;;7.60;81.76;101537.75;5055701;28;20070;-71
2021/04/30 06:45:54;;;;;;;23.65;14.05;;;;;;;7.70;81.49;101536.78;5056312;28;20049;-70
2021/04/30 06:48:23;;;;;;;29.83;13.60;;;;;;;7.74;81.29;101538.50;5052407;28;20135;-70
2021/04/30 06:50:50;;;;;;;25.40;13.68;;;;;;;7.76;81.17;101542.00;5051905;28;20189;-71
2021/04/30 06:53:17;;;;;;;21.77;12.90;;;;;;;7.83;80.09;101541.09;5057525;28;20049;-74
2021/04/30 06:55:44;;;;;;;28.00;14.77;;;;;;;7.74;79.32;101534.97;5054903;28;20470;-74
2021/04/30 06:58:11;;;;;;;25.75;14.00;;;;;;;7.69;80.01;101553.59;5057143;28;20052;-73
2021/04/30 07:00:38;;;;;;;26.00;13.88;;;;;;;7.73;79.99;101539.41;5052292;28;20537;-73
2021/04/30 07:03:05;;;;;;;26.92;11.93;;;;;;;7.84;80.19;101553.47;5058061;28;20057;-74
2021/04/30 07:05:41;;;;;;;22.15;12.60;;;;;;;7.97;80.20;101548.03;5052014;28;20060;-73
2021/04/30 07:08:08;;;;;;;24.73;12.38;;;;;;;8.02;79.81;101554.19;5047358;28;20047;-74
2021/04/30 07:10:35;;;;;;;25.40;14.52;;;;;;;8.09;79.34;101547.91;5053478;28;20080;-73
2021/04/30 07:13:10;;;;;;;24.67;13.20;;;;;;;8.20;78.85;101545.13;5052859;28;20055;-73
2021/04/30 07:15:36;;;;;;;;;;;;;;;8.27;78.75;101551.25;5051936;28;20479;-73
2021/04/30 07:18:04;;;;;;;24.20;13.02;;;;;;;8.28;78.18;101553.03;5057855;28;19924;-73
2021/04/30 07:20:31;;;;;;;24.88;13.48;;;;;;;8.30;77.81;101552.09;5054853;28;20063;-73
2021/04/30 07:22:59;;;;;;;20.80;12.73;;;;;;;8.43;77.58;101546.66;5057691;28;20147;-73
2021/04/30 07:25:26;;;;;;;23.48;13.25;;;;;;;8.37;76.34;101547.59;5067155;28;20060;-75
2021/04/30 07:27:52;;;;;;;25.02;13.98;;;;;;;8.29;76.05;101546.81;5055903;28;20064;-74
2021/04/30 07:30:20;;;;;;;25.48;14.25;;;;;;;8.31;76.30;101545.91;5055085;28;20056;-74
2021/04/30 07:32:47;;;;;;;25.17;14.27;;;;;;;8.62;76.08;101540.25;5052838;28;20057;-74
2021/04/30 07:35:34;;;;;;;21.27;12.73;;;;;;;8.85;76.12;101547.91;5050745;28;20435;-70
2021/04/30 07:38:02;;;;;;;25.75;13.90;;;;;;;8.91;74.23;101547.81;5056402;28;20045;-70
2021/04/30 07:40:30;;;;;;;21.33;12.52;;;;;;;9.08;75.01;101552.03;5055372;28;20044;-71
2021/04/30 07:42:57;;;;;;;23.73;13.27;;;;;;;9.19;74.60;101539.44;5056586;28;20398;-70
2021/04/30 07:45:24;;;;;;;26.10;14.65;;;;;;;9.18;74.38;101551.00;5049846;28;20391;-70
2021/04/30 07:47:51;;;;;;;24.00;14.50;;;;;;;9.30;74.40;101550.81;5051659;28;20091;-70
2021/04/30 07:50:20;;;;;;;25.35;13.63;;;;;;;9.55;74.41;101550.41;5054694;28;20048;-70
2021/04/30 07:52:47;;;;;;;21.85;13.25;;;;;;;9.79;73.84;101546.47;5056668;28;20162;-70
2021/04/30 07:55:14;;;;;;;23.67;13.27;;;;;;;9.80;71.95;101537.53;5042912;28;20055;-70
2021/04/30 07:57:41;;;;;;;23.67;14.45;;;;;;;9.73;71.91;101539.44;5052633;28;20081;-69
2021/04/30 08:00:09;;;;;;;23.50;13.93;;;;;;;9.80;72.16;101542.00;5053857;28;20056;-69
2021/04/30 08:02:36;;;;;;;18.80;13.05;;;;;;;9.89;72.25;101541.81;5049038;28;20056;-73
2021/04/30 08:05:04;;;;;;;20.67;13.02;;;;;;;9.82;71.74;101546.38;5051730;28;20052;-70
2021/04/30 08:07:32;;;;;;;27.65;14.93;;;;;;;9.81;70.82;101549.09;5051031;28;20059;-69
2021/04/30 08:09:59;;;;;;;25.27;13.38;;;;;;;9.67;71.68;101551.97;5046309;28;20052;-69
2021/04/30 08:12:26;;;;;;;22.67;13.80;;;;;;;9.78;71.63;101538.50;5050702;28;20048;-70
2021/04/30 08:14:53;;;;;;;24.60;13.93;;;;;;;9.64;70.76;101536.06;5052640;28;20049;-69
2021/04/30 08:17:21;;;;;;;24.77;14.32;;;;;;;9.34;70.80;101533.88;5056147;28;20094;-69
2021/04/30 08:19:48;;;;;;;23.05;13.63;;;;;;;9.43;71.25;101543.53;5051843;28;20147;-70
2021/04/30 08:22:15;;;;;;;22.05;12.65;;;;;;;9.08;72.35;101539.59;5047713;28;20059;-71
2021/04/30 08:24:42;;;;;;;15.90;10.77;;;;;;;8.94;74.51;101550.44;5050676;28;20045;-70
2021/04/30 08:27:09;;;;;;;18.27;10.93;;;;;;;8.93;75.30;101542.50;5044341;28;20168;-69
2021/04/30 08:29:37;;;;;;;17.80;10.45;;;;;;;8.81;75.76;101546.19;5051699;28;20091;-73
2021/04/30 08:32:05;;;;;;;19.05;10.48;;;;;;;8.59;75.80;101549.13;5050749;28;20045;-72
2021/04/30 08:34:32;;;;;;;18.38;10.88;;;;;;;8.70;75.32;101549.00;5055160;28;20052;-73
2021/04/30 08:37:10;;;;;;;20.23;11.23;;;;;;;8.59;75.75;101556.22;5054406;28;20052;-75
2021/04/30 08:39:37;;;;;;;18.08;10.65;;;;;;;8.49;75.28;101560.78;5052961;28;20144;-74
2021/04/30 08:42:05;;;;;;;18.85;11.45;;;;;;;8.48;75.90;101561.69;5052520;28;20052;-73
2021/04/30 08:44:35;;;;;;;20.10;10.77;;;;;;;8.28;76.68;101563.66;5053088;28;20060;-73
2021/04/30 08:47:03;;;;;;;22.42;11.45;;;;;;;8.32;76.64;101566.25;5044963;28;20094;-73
2021/04/30 08:49:30;;;;;;;18.05;9.98;;;;;;;8.27;77.03;101565.44;5054365;28;20297;-73
2021/04/30 08:51:57;;;;;;;15.85;9.32;;;;;;;8.23;77.12;101564.59;5055102;28;20061;-73
2021/04/30 08:54:25;;;;;;;20.63;9.43;;;;;;;8.17;76.97;101569.09;5050871;28;20124;-73
2021/04/30 08:56:57;;;;;;;19.60;9.63;;;;;;;8.00;77.26;101574.56;5051288;28;20056;-73
2021/04/30 08:59:26;;;;;;;17.38;9.52;;;;;;;8.00;77.36;101572.81;5052482;28;20080;-73
2021/04/30 09:01:53;;;;;;;20.73;9.05;;;;;;;7.86;78.24;101572.03;5048601;28;20099;-74
2021/04/30 09:04:22;;;;;;;22.33;9.57;;;;;;;7.97;78.03;101580.81;5051362;28;20060;-73
2021/04/30 09:06:49;;;;;;;17.08;9.43;;;;;;;7.82;78.57;101580.94;5056376;28;20108;-72
2021/04/30 09:09:18;;;;;;;16.13;9.32;;;;;;;7.89;78.34;101577.34;5054450;28;20523;-70
2021/04/30 09:11:47;;;;;;;16.20;8.45;;;;;;;7.83;78.57;101580.94;5063954;28;20131;-70
2021/04/30 09:14:30;;;;;;;19.67;9.48;;;;;;;7.77;78.64;101582.78;5057246;28;20427;-70
2021/04/30 09:17:09;;;;;;;19.52;8.63;;;;;;;7.75;79.09;101585.44;5060940;28;20052;-71
2021/04/30 09:19:46;;;;;;;19.58;9.88;;;;;;;7.71;79.34;101588.13;5058772;28;20052;-71
2021/04/30 09:22:14;;;;;;;18.42;8.73;;;;;;;7.74;79.23;101588.97;5058162;28;20081;-75
2021/04/30 09:24:51;;;;;;;19.08;10.63;;;;;;;7.74;79.58;101594.28;5061386;28;20053;-75
2021/04/30 09:27:33;;;;;;;15.68;9.48;;;;;;;7.62;80.28;101589.94;5060988;28;20053;-74
2021/04/30 09:30:24;;;;;;;17.92;9.20;;;;;;;7.60;79.88;101588.22;5056941;28;20102;-74
2021/04/30 09:33:02;;;;;;;17.48;8.93;;;;;;;7.60;80.42;101594.41;5061911;28;20078;-74
2021/04/30 09:35:34;;;;;;;14.85;9.38;;;;;;;7.56;80.43;101591.78;5061418;28;20053;-74
2021/04/30 09:38:17;;;;;;;21.48;9.38;;;;;;;7.46;80.61;101594.50;5054614;28;20045;-74
2021/04/30 09:40:45;;;;;;;17.88;8.98;;;;;;;7.54;80.73;101590.91;5060268;28;20068;-73
2021/04/30 09:43:13;;;;;;;20.05;9.25;;;;;;;7.51;81.21;101590.94;5053234;28;20087;-73
2021/04/30 09:45:44;;;;;;;23.00;10.27;;;;;;;7.45;81.11;101603.34;5061776;28;20045;-73
2021/04/30 09:48:13;;;;;;;22.50;9.52;;;;;;;7.44;81.32;101604.25;5060977;28;20141;-74
2021/04/30 09:50:43;;;;;;;21.73;9.15;;;;;;;7.40;82.64;101598.97;5054285;28;20049;-73
2021/04/30 09:53:11;;;;;;;18.90;9.85;;;;;;;7.43;82.39;101609.59;5057174;28;20060;-74
2021/04/30 09:55:44;;;;;;;17.85;9.90;;;;;;;7.39;81.78;101606.06;5060170;28;20474;-74
2021/04/30 09:58:22;;;;;;;19.50;10.00;;;;;;;7.31;82.97;101605.22;5048692;28;20052;-74
2021/04/30 10:00:51;;;;;;;22.63;9.25;;;;;;;7.30;83.14;101608.78;5059354;28;20063;-74
2021/04/30 10:03:19;;;;;;;21.98;9.82;;;;;;;7.24;83.43;101609.69;5055920;28;20084;-73
2021/04/30 10:06:06;;;;;;;19.00;10.00;;;;;;;7.26;83.94;101607.91;5053872;28;20053;-74
2021/04/30 10:08:34;;;;;;;19.67;9.43;;;;;;;7.25;84.42;101613.22;5056057;28;20095;-74
2021/04/30 10:11:02;;;;;;;17.05;9.18;;;;;;;7.24;85.64;101617.66;5050217;28;20041;-73
2021/04/30 10:13:38;;;;;;;20.45;10.82;;;;;;;7.25;85.39;101615.88;5057873;28;20392;-72
2021/04/30 10:16:06;;;;;;;16.90;8.82;;;;;;;7.21;85.87;101616.81;5052844;28;20061;-74
2021/04/30 10:18:33;;;;;;;16.02;8.70;;;;;;;7.21;85.65;101612.38;5056818;28;20083;-73
2021/04/30 10:21:01;;;;;;;16.63;9.35;;;;;;;7.13;86.08;101608.88;5051331;28;20088;-74
2021/04/30 10:23:31;;;;;;;21.45;9.60;;;;;;;7.16;86.01;101611.50;5056596;28;20052;-74
2021/04/30 10:25:58;;;;;;;16.88;8.70;;;;;;;7.09;85.87;101617.75;5054557;28;20052;-75
2021/04/30 10:28:29;;;;;;;19.10;9.00;;;;;;;7.11;86.24;101608.00;5057794;28;20061;-74
2021/04/30 10:31:02;;;;;;;15.68;7.70;;;;;;;7.11;85.71;101616.84;5053009;28;20089;-73
2021/04/30 10:33:36;;;;;;;18.85;8.75;;;;;;;7.05;86.19;101613.34;5050465;28;20140;-72
2021/04/30 10:36:08;;;;;;;17.17;8.32;;;;;;;7.04;86.02;101612.44;5068757;28;20060;-74
2021/04/30 10:38:45;;;;;;;16.92;7.95;;;;;;;7.04;86.02;101600.97;5052340;28;20067;-71
2021/04/30 10:41:13;;;;;;;17.27;8.23;;;;;;;7.00;86.36;101613.38;5056015;28;20055;-73
2021/04/30 10:43:41;;;;;;;18.02;8.30;;;;;;;6.96;86.24;101605.44;5057039;28;20088;-71
2021/04/30 10:46:22;;;;;;;17.50;8.13;;;;;;;6.96;86.36;101610.72;5040553;28;20049;-71
2021/04/30 10:49:15;;;;;;;14.10;7.95;;;;;;;6.90;86.08;101614.31;5052769;28;20045;-71
2021/04/30 10:51:44;;;;;;;17.30;8.38;;;;;;;6.88;85.68;101611.66;5056135;28;20116;-71
2021/04/30 10:54:28;;;;;;;15.07;7.88;;;;;;;6.80;85.42;101618.75;5052347;28;20075;-71
2021/04/30 10:56:58;;;;;;;11.83;7.93;;;;;;;6.78;84.42;101631.16;5055178;28;20061;-71
2021/04/30 10:59:27;;;;;;;16.00;8.18;;;;;;;6.80;84.92;101631.16;5055026;28;20356;-71
2021/04/30 11:02:01;;;;;;;16.75;8.60;;;;;;;6.75;85.21;101627.63;5059209;28;20080;-70
2021/04/30 11:04:29;;;;;;;17.83;8.75;;;;;;;6.77;86.14;101634.69;5050003;28;20144;-70
2021/04/30 11:06:58;;;;;;;13.70;9.13;;;;;;;6.70;86.27;101628.50;5050634;28;20048;-70
2021/04/30 11:09:34;;;;;;;18.88;8.73;;;;;;;6.70;86.30;101639.13;5042517;28;20103;-71
2021/04/30 11:12:18;;;;;;;16.05;8.48;;;;;;;6.71;86.64;101637.38;5050295;28;20048;-70
2021/04/30 11:14:57;;;;;;;16.45;8.43;;;;;;;6.70;86.58;101639.13;5055934;28;20091;-71
2021/04/30 11:17:46;;;;;;;17.05;7.85;;;;;;;6.69;86.43;101647.09;5052537;28;20095;-71
2021/04/30 11:20:17;;;;;;;17.88;9.30;;;;;;;6.70;86.75;101644.44;5057516;28;20053;-70
2021/04/30 11:23:17;;;;;;;17.35;8.60;;;;;;;6.74;87.01;101645.28;5050903;28;20053;-69
2021/04/30 11:26:07;;;;;;;18.33;8.65;;;;;;;6.70;87.26;101649.72;5057210;28;20055;-70
2021/04/30 11:29:09;;;;;;;15.00;7.97;;;;;;;6.59;87.56;101655.94;5051855;28;20057;-70
2021/04/30 11:31:38;;;;;;;17.27;9.02;;;;;;;6.66;88.49;101650.66;5054526;28;20152;-70